Time;durP1;ratioP1;P1;durP2;ratioP2;P2;SDS_P1;SDS_P2;PMS_P1;PMS_P2;Temp;Humidity;BMP_temperature;BMP_pressure;BME280_temperature;BME280_humidity;BME280_pressure;Samples;Min_cycle;Max_cycle;Signal;HPM_P1;HPM_P2
2021/09/13 00:01:43;;;;;;;;;;;;;;;13.74;79.70;101952.06;5054784;28;19909;-36
2021/09/13 00:04:09;;;;;;;;;;;;;;;13.72;80.00;101951.47;5054308;28;19909;-36
2021/09/13 00:06:34;;;;;;;;;;;;;;;13.67;80.05;101947.75;5054495;28;20058;-36
2021/09/13 00:08:59;;;;;;;;;;;;;;;13.64;79.82;101954.47;5054346;28;19955;-36
2021/09/13 00:11:25;;;;;;;;;;;;;;;13.63;80.26;101950.91;5054313;28;19935;-36
2021/09/13 00:13:50;;;;;;;;;;;;;;;13.64;79.80;101944.41;5054504;28;19908;-36
2021/09/13 00:16:15;;;;;;;;;;;;;;;13.62;79.95;101951.97;5054480;28;19915;-36
2021/09/13 00:18:40;;;;;;;;;;;;;;;13.59;79.97;101946.16;5054325;28;20003;-36
2021/09/13 00:21:06;;;;;;;;;;;;;;;13.57;80.43;101948.28;5054421;28;20008;-36
2021/09/13 00:23:31;;;;;;;;;;;;;;;13.47;79.90;101932.47;5054339;28;20017;-36
2021/09/13 00:25:56;;;;;;;;;;;;;;;13.51;80.18;101947.25;5054610;28;19944;-36
2021/09/13 00:28:22;;;;;;;;;;;;;;;13.49;79.95;101941.22;5054647;28;19916;-36
2021/09/13 00:30:47;;;;;;;;;;;;;;;13.45;80.29;101942.72;5053996;28;20390;-36
2021/09/13 00:33:12;;;;;;;;;;;;;;;13.41;80.19;101941.50;5053982;28;19909;-36
2021/09/13 00:35:38;;;;;;;;;;;;;;;13.35;80.24;101935.06;5054128;28;20370;-36
2021/09/13 00:38:03;;;;;;;;;;;;;;;13.33;80.19;101933.66;5054360;28;20352;-36
2021/09/13 00:40:28;;;;;;;;;;;;;;;13.29;80.12;101930.53;5053040;28;20268;-36
2021/09/13 00:42:53;;;;;;;;;;;;;;;13.28;80.27;101936.22;5054578;28;19909;-36
2021/09/13 00:45:19;;;;;;;;;;;;;;;13.25;80.51;101937.47;5053948;28;19908;-36
2021/09/13 00:47:44;;;;;;;;;;;;;;;13.25;80.23;101936.63;5054405;28;19924;-36
2021/09/13 00:50:09;;;;;;;;;;;;;;;13.22;80.55;101935.19;5053846;28;19913;-36
2021/09/13 00:52:35;;;;;;;;;;;;;;;13.24;80.80;101937.69;5054811;28;19975;-36
2021/09/13 00:55:00;;;;;;;;;;;;;;;13.24;80.77;101929.56;5053771;28;20311;-36
2021/09/13 00:57:29;;;;;;;;;;;;;;;13.22;80.42;101934.34;5054280;28;19909;-36
2021/09/13 00:59:55;;;;;;;;;;;;;;;13.19;80.63;101930.19;5053417;28;19908;-36
2021/09/13 01:02:20;;;;;;;;;;;;;;;13.18;80.67;101935.84;5054110;28;20333;-36
2021/09/13 01:04:46;;;;;;;;;;;;;;;13.15;80.57;101935.22;5053442;28;19996;-36
2021/09/13 01:07:12;;;;;;;;;;;;;;;13.10;80.77;101928.78;5053839;28;19909;-36
2021/09/13 01:09:37;;;;;;;;;;;;;;;13.06;80.84;101935.72;5053884;28;19909;-36
2021/09/13 01:12:02;;;;;;;;;;;;;;;13.05;80.83;101934.88;5053612;28;19980;-36
2021/09/13 01:14:38;;;;;;;;;;;;;;;13.03;80.74;101931.56;5053524;28;19908;-36
2021/09/13 01:17:04;;;;;;;;;;;;;;;13.05;80.70;101932.19;5053496;28;19909;-36
2021/09/13 01:19:29;;;;;;;;;;;;;;;13.08;81.03;101931.75;5054009;28;19910;-36
2021/09/13 01:21:58;;;;;;;;;;;;;;;13.12;81.67;101937.53;5054013;28;20054;-36
2021/09/13 01:24:23;;;;;;;;;;;;;;;13.15;82.45;101927.06;5053414;28;19967;-35
2021/09/13 01:26:48;;;;;;;;;;;;;;;13.15;81.68;101928.97;5053706;28;19920;-36
2021/09/13 01:29:13;;;;;;;;;;;;;;;13.13;81.30;101931.09;5053406;28;19908;-36
2021/09/13 01:31:39;;;;;;;;;;;;;;;13.09;81.12;101933.41;5053361;28;19909;-36
2021/09/13 01:34:04;;;;;;;;;;;;;;;13.08;81.23;101934.47;5053270;28;19912;-36
2021/09/13 01:36:29;;;;;;;;;;;;;;;13.04;81.28;101933.22;5053792;28;19968;-36
2021/09/13 01:38:54;;;;;;;;;;;;;;;13.00;80.97;101942.03;5053767;28;19935;-36
2021/09/13 01:41:20;;;;;;;;;;;;;;;12.94;80.89;101934.78;5053207;28;20379;-36
2021/09/13 01:43:45;;;;;;;;;;;;;;;12.88;80.92;101934.59;5053281;28;19954;-36
2021/09/13 01:46:10;;;;;;;;;;;;;;;12.83;81.07;101930.88;5052734;28;19959;-36
2021/09/13 01:48:35;;;;;;;;;;;;;;;12.82;81.09;101929.22;5052932;28;19909;-36
2021/09/13 01:51:00;;;;;;;;;;;;;;;12.79;81.35;101935.94;5052911;28;19908;-36
2021/09/13 01:53:26;;;;;;;;;;;;;;;12.82;81.38;101938.19;5057536;28;19916;-36
2021/09/13 01:55:51;;;;;;;;;;;;;;;12.85;81.27;101939.63;5057606;28;19915;-36
2021/09/13 01:58:17;;;;;;;;;;;;;;;12.86;81.48;101935.88;5057003;28;19928;-36
2021/09/13 02:00:43;;;;;;;;;;;;;;;12.84;81.15;101938.81;5056948;28;19915;-36
2021/09/13 02:03:08;;;;;;;;;;;;;;;12.79;81.33;101935.09;5056962;28;19908;-36
2021/09/13 02:05:34;;;;;;;;;;;;;;;12.74;81.31;101930.31;5056826;28;19916;-36
2021/09/13 02:07:59;;;;;;;;;;;;;;;12.72;81.32;101942.44;5056781;28;19999;-36
2021/09/13 02:10:24;;;;;;;;;;;;;;;12.67;81.50;101939.53;5056773;28;19951;-36
2021/09/13 02:12:49;;;;;;;;;;;;;;;12.63;81.20;101937.25;5057822;28;19983;-36
2021/09/13 02:15:15;;;;;;;;;;;;;;;12.59;81.33;101946.91;5056327;28;20327;-36
2021/09/13 02:17:40;;;;;;;;;;;;;;;12.57;81.48;101938.13;5056873;28;19915;-36
2021/09/13 02:20:05;;;;;;;;;;;;;;;12.57;81.39;101934.59;5056573;28;20233;-36
2021/09/13 02:22:31;;;;;;;;;;;;;;;12.55;81.49;101929.38;5056465;28;20325;-36
2021/09/13 02:24:56;;;;;;;;;;;;;;;12.48;81.53;101928.56;5056747;28;20040;-36
2021/09/13 02:27:21;;;;;;;;;;;;;;;12.44;81.51;101927.34;5056705;28;20431;-36
2021/09/13 02:29:46;;;;;;;;;;;;;;;12.41;81.58;101930.50;5056358;28;20356;-36
2021/09/13 02:32:11;;;;;;;;;;;;;;;12.38;81.63;101926.34;5056104;28;20357;-36
2021/09/13 02:34:37;;;;;;;;;;;;;;;12.38;81.90;101917.38;5056293;28;20415;-36
2021/09/13 02:37:02;;;;;;;;;;;;;;;12.40;81.80;101915.28;5056482;28;19952;-36
2021/09/13 02:39:27;;;;;;;;;;;;;;;12.38;81.82;101912.78;5056531;28;19934;-36
2021/09/13 02:41:53;;;;;;;;;;;;;;;12.37;81.68;101919.25;5056428;28;19932;-36
2021/09/13 02:44:18;;;;;;;;;;;;;;;12.36;81.63;101919.47;5056048;28;19912;-36
2021/09/13 02:46:44;;;;;;;;;;;;;;;12.34;81.65;101921.56;5055926;28;19959;-36
2021/09/13 02:49:09;;;;;;;;;;;;;;;12.30;81.99;101917.63;5055983;28;19909;-36
2021/09/13 02:51:34;;;;;;;;;;;;;;;12.28;81.65;101917.00;5056253;28;19919;-36
2021/09/13 02:53:59;;;;;;;;;;;;;;;12.24;81.59;101918.47;5055917;28;19969;-36
2021/09/13 02:56:24;;;;;;;;;;;;;;;12.21;81.88;101922.47;5056618;28;19912;-36
2021/09/13 02:58:50;;;;;;;;;;;;;;;12.19;81.93;101918.28;5055846;28;20003;-36
2021/09/13 03:01:15;;;;;;;;;;;;;;;12.19;81.94;101923.72;5055809;28;20433;-36
2021/09/13 03:03:41;;;;;;;;;;;;;;;12.20;82.09;101914.53;5054685;28;19908;-36
2021/09/13 03:06:06;;;;;;;;;;;;;;;12.17;81.68;101923.13;5055392;28;20249;-35
2021/09/13 03:08:31;;;;;;;;;;;;;;;12.13;81.82;101924.59;5055565;28;19955;-35
2021/09/13 03:10:56;;;;;;;;;;;;;;;12.09;81.72;101916.03;5056110;28;19955;-36
2021/09/13 03:13:21;;;;;;;;;;;;;;;12.04;81.84;101919.41;5056033;28;19909;-36
2021/09/13 03:15:47;;;;;;;;;;;;;;;12.04;81.87;101919.41;5056035;28;19909;-36
2021/09/13 03:18:12;;;;;;;;;;;;;;;11.99;81.96;101912.97;5055456;28;19986;-36
2021/09/13 03:20:37;;;;;;;;;;;;;;;11.96;82.10;101914.22;5055447;28;20272;-36
2021/09/13 03:23:03;;;;;;;;;;;;;;;11.93;82.10;101913.81;5055602;28;19909;-36
2021/09/13 03:25:28;;;;;;;;;;;;;;;11.91;81.94;101910.47;5055848;28;20344;-36
2021/09/13 03:27:54;;;;;;;;;;;;;;;11.88;82.15;101911.75;5055408;28;19923;-36
2021/09/13 03:30:19;;;;;;;;;;;;;;;11.84;81.94;101915.94;5054896;28;19909;-36
2021/09/13 03:32:44;;;;;;;;;;;;;;;11.82;82.06;101918.88;5055712;28;19919;-36
2021/09/13 03:35:09;;;;;;;;;;;;;;;11.77;81.88;101926.78;5054826;28;19909;-36
2021/09/13 03:37:35;;;;;;;;;;;;;;;11.73;81.95;101921.97;5055622;28;19913;-36
2021/09/13 03:40:00;;;;;;;;;;;;;;;11.75;82.19;101928.00;5055031;28;19908;-36
2021/09/13 03:42:25;;;;;;;;;;;;;;;11.74;82.13;101924.47;5055086;28;19974;-36
2021/09/13 03:44:50;;;;;;;;;;;;;;;11.72;82.00;101923.03;5053287;28;19908;-36
2021/09/13 03:47:16;;;;;;;;;;;;;;;11.70;82.24;101927.81;5054663;28;20004;-36
2021/09/13 03:49:41;;;;;;;;;;;;;;;11.68;82.11;101924.50;5054841;28;19909;-36
2021/09/13 03:52:09;;;;;;;;;;;;;;;11.68;82.33;101924.50;5055407;28;19915;-36
2021/09/13 03:54:35;;;;;;;;;;;;;;;11.67;82.31;101918.25;5055242;28;20003;-35
2021/09/13 03:57:00;;;;;;;;;;;;;;;11.67;82.33;101918.25;5055455;28;19948;-35
2021/09/13 03:59:25;;;;;;;;;;;;;;;11.67;82.33;101918.25;5054966;28;20353;-36
2021/09/13 04:01:51;;;;;;;;;;;;;;;11.64;82.17;101918.66;5054382;28;20249;-36
2021/09/13 04:04:17;;;;;;;;;;;;;;;11.63;82.27;101914.28;5054529;28;19916;-36
2021/09/13 04:06:47;;;;;;;;;;;;;;;11.62;82.16;101911.81;5054776;28;20248;-36
2021/09/13 04:11:53;;;;;;;;;;;;;;;11.62;82.46;101919.94;5054529;28;19935;-35
2021/09/13 04:14:18;;;;;;;;;;;;;;;11.63;82.52;101913.47;5054156;28;19920;-36
2021/09/13 04:16:44;;;;;;;;;;;;;;;11.64;82.51;101918.66;5054311;28;19913;-36
2021/09/13 04:19:09;;;;;;;;;;;;;;;11.63;82.52;101913.47;5054250;28;19991;-36
2021/09/13 04:21:34;;;;;;;;;;;;;;;11.57;82.35;101913.25;5054532;28;19939;-36
2021/09/13 04:23:59;;;;;;;;;;;;;;;11.52;82.51;101915.78;5054585;28;19916;-35
2021/09/13 04:26:25;;;;;;;;;;;;;;;11.48;82.45;101917.25;5054357;28;19908;-36
2021/09/13 04:28:50;;;;;;;;;;;;;;;11.50;82.54;101915.13;5054611;28;19909;-36
2021/09/13 04:31:15;;;;;;;;;;;;;;;11.51;82.60;101908.66;5054005;28;19955;-36
2021/09/13 04:33:40;;;;;;;;;;;;;;;11.50;82.48;101909.72;5053234;28;19915;-36
2021/09/13 04:36:06;;;;;;;;;;;;;;;11.46;82.32;101902.22;5053979;28;20303;-36
2021/09/13 04:38:31;;;;;;;;;;;;;;;11.41;82.31;101916.41;5053641;28;19909;-36
2021/09/13 04:40:56;;;;;;;;;;;;;;;11.38;82.41;101911.44;5054138;28;20057;-35
2021/09/13 04:43:21;;;;;;;;;;;;;;;11.35;82.16;101909.13;5053850;28;20285;-36
2021/09/13 04:45:47;;;;;;;;;;;;;;;11.35;82.50;101911.84;5053703;28;20013;-36
2021/09/13 04:48:12;;;;;;;;;;;;;;;11.33;82.57;101911.22;5053229;28;20062;-36
2021/09/13 04:50:37;;;;;;;;;;;;;;;11.32;82.53;101914.94;5054485;28;19908;-35
2021/09/13 04:53:02;;;;;;;;;;;;;;;11.27;82.62;101906.63;5053643;28;19909;-35
2021/09/13 04:55:28;;;;;;;;;;;;;;;11.24;82.61;101909.78;5053760;28;19962;-36
2021/09/13 04:57:53;;;;;;;;;;;;;;;11.20;82.72;101913.94;5053680;28;19909;-34
2021/09/13 05:00:20;;;;;;;;;;;;;;;11.18;82.92;101914.16;5053538;28;20257;-35
2021/09/13 05:02:46;;;;;;;;;;;;;;;11.19;82.76;101914.97;5054274;28;20242;-35
2021/09/13 05:05:11;;;;;;;;;;;;;;;11.18;82.56;101911.44;5053511;28;19915;-35
2021/09/13 05:07:36;;;;;;;;;;;;;;;11.20;83.04;101914.75;5053372;28;19909;-35
2021/09/13 05:10:02;;;;;;;;;;;;;;;11.17;82.97;101914.34;5053125;28;19908;-35
2021/09/13 05:12:27;;;;;;;;;;;;;;;11.16;82.77;101921.63;5053447;28;19916;-35
2021/09/13 05:14:53;;;;;;;;;;;;;;;11.13;82.85;101918.53;5053410;28;19909;-36
2021/09/13 05:17:18;;;;;;;;;;;;;;;11.13;83.08;101930.19;5053396;28;19912;-35
2021/09/13 05:19:43;;;;;;;;;;;;;;;11.16;82.90;101934.34;5052937;28;19908;-35
2021/09/13 05:22:08;;;;;;;;;;;;;;;11.15;83.00;101927.25;5053196;28;19920;-35
2021/09/13 05:24:33;;;;;;;;;;;;;;;11.14;82.85;101937.25;5053562;28;20030;-35
2021/09/13 05:26:59;;;;;;;;;;;;;;;11.14;82.89;101936.44;5055493;28;19912;-35
2021/09/13 05:29:24;;;;;;;;;;;;;;;11.12;82.95;101938.50;5057745;28;20357;-35
2021/09/13 05:31:49;;;;;;;;;;;;;;;11.15;82.88;101943.50;5057441;28;19915;-35
2021/09/13 05:34:14;;;;;;;;;;;;;;;11.14;82.82;101939.97;5057310;28;20261;-35
2021/09/13 05:36:39;;;;;;;;;;;;;;;11.14;83.09;101939.97;5057551;28;20402;-35
2021/09/13 05:39:05;;;;;;;;;;;;;;;11.16;82.99;101945.16;5057015;28;20320;-35
2021/09/13 05:41:30;;;;;;;;;;;;;;;11.18;82.98;101940.41;5057112;28;19912;-35
2021/09/13 05:43:55;;;;;;;;;;;;;;;11.18;83.03;101941.22;5057262;28;19959;-35
2021/09/13 05:46:20;;;;;;;;;;;;;;;11.23;82.99;101943.31;5057131;28;20326;-35
2021/09/13 05:48:46;;;;;;;;;;;;;;;11.23;83.36;101949.56;5056895;28;20372;-35
2021/09/13 05:51:11;;;;;;;;;;;;;;;11.24;83.22;101948.50;5056836;28;20277;-35
2021/09/13 05:53:36;;;;;;;;;;;;;;;11.31;83.21;101940.38;5057273;28;19909;-35
2021/09/13 05:56:01;;;;;;;;;;;;;;;11.41;83.19;101938.06;5057285;28;20003;-35
2021/09/13 05:58:26;;;;;;;;;;;;;;;11.51;83.20;101943.06;5056939;28;19909;-35
2021/09/13 06:00:52;;;;;;;;;;;;;;;11.54;83.12;101950.78;5056980;28;19912;-35
2021/09/13 06:03:17;;;;;;;;;;;;;;;11.57;83.35;101950.38;5056532;28;19955;-35
2021/09/13 06:05:42;;;;;;;;;;;;;;;11.62;83.44;101952.44;5057178;28;19908;-36
2021/09/13 06:08:07;;;;;;;;;;;;;;;11.65;83.39;101947.41;5056693;28;19908;-35
2021/09/13 06:10:33;;;;;;;;;;;;;;;11.66;83.34;101948.25;5056951;28;19909;-35
2021/09/13 06:12:58;;;;;;;;;;;;;;;11.71;83.17;101951.16;5056699;28;20333;-35
2021/09/13 06:15:23;;;;;;;;;;;;;;;11.76;83.57;101949.50;5056938;28;19931;-35
2021/09/13 06:17:48;;;;;;;;;;;;;;;11.82;83.28;101954.09;5057372;28;19916;-35
2021/09/13 06:20:14;;;;;;;;;;;;;;;11.83;83.09;101947.63;5057329;28;19914;-35
2021/09/13 06:22:39;;;;;;;;;;;;;;;11.87;83.13;101948.03;5056971;28;19932;-35
2021/09/13 06:25:04;;;;;;;;;;;;;;;11.90;83.16;101955.72;5056201;28;19948;-35
2021/09/13 06:27:30;;;;;;;;;;;;;;;11.93;83.01;101958.03;5057097;28;19915;-35
2021/09/13 06:29:55;;;;;;;;;;;;;;;11.96;83.28;101968.44;5056026;28;19916;-35
2021/09/13 06:32:20;;;;;;;;;;;;;;;12.02;83.31;101969.47;5056579;28;19908;-35
2021/09/13 06:34:46;;;;;;;;;;;;;;;12.07;83.44;101972.38;5056272;28;19957;-35
2021/09/13 06:37:11;;;;;;;;;;;;;;;12.10;83.46;101970.06;5057029;28;20000;-35
2021/09/13 06:39:36;;;;;;;;;;;;;;;12.10;83.26;101964.66;5055904;28;20250;-35
2021/09/13 06:42:02;;;;;;;;;;;;;;;12.16;83.63;101962.13;5056428;28;19908;-35
2021/09/13 06:44:29;;;;;;;;;;;;;;;12.21;83.85;101965.03;5056029;28;19908;-35
2021/09/13 06:47:09;;;;;;;;;;;;;;;12.27;84.10;101965.00;5056532;28;20007;-35
2021/09/13 06:49:35;;;;;;;;;;;;;;;12.33;83.87;101963.28;5056246;28;19944;-35
2021/09/13 06:52:02;;;;;;;;;;;;;;;12.37;83.84;101969.97;5055545;28;20022;-35
2021/09/13 06:54:27;;;;;;;;;;;;;;;12.41;83.65;101963.06;5055906;28;20345;-35
2021/09/13 06:56:54;;;;;;;;;;;;;;;12.46;83.80;101962.41;5056267;28;19909;-35
2021/09/13 06:59:19;;;;;;;;;;;;;;;12.51;83.59;101958.00;5056177;28;19909;-35
2021/09/13 07:01:44;;;;;;;;;;;;;;;12.59;83.92;101955.03;5056384;28;19920;-34
2021/09/13 07:04:09;;;;;;;;;;;;;;;12.66;83.82;101957.72;5056580;28;19909;-35
2021/09/13 07:06:34;;;;;;;;;;;;;;;12.77;83.56;101948.03;5056201;28;20011;-35
2021/09/13 07:09:00;;;;;;;;;;;;;;;12.88;83.83;101950.03;5055617;28;19940;-35
2021/09/13 07:11:25;;;;;;;;;;;;;;;12.97;84.18;101959.59;5056172;28;19908;-35
2021/09/13 07:13:51;;;;;;;;;;;;;;;13.04;84.13;101959.56;5055633;28;20230;-35
2021/09/13 07:16:16;;;;;;;;;;;;;;;13.12;83.81;101962.81;5055865;28;19908;-35
2021/09/13 07:18:41;;;;;;;;;;;;;;;13.22;83.71;101956.91;5055258;28;19908;-36
2021/09/13 07:21:06;;;;;;;;;;;;;;;13.29;83.72;101971.28;5055826;28;19916;-35
2021/09/13 07:23:32;;;;;;;;;;;;;;;13.31;86.88;101958.31;5056177;28;19908;-35
2021/09/13 07:25:57;;;;;;;;;;;;;;;13.30;85.38;101964.78;5055701;28;19909;-35
2021/09/13 07:28:22;;;;;;;;;;;;;;;13.35;85.04;101966.84;5054545;28;20308;-35
2021/09/13 07:30:47;;;;;;;;;;;;;;;13.42;85.76;101967.66;5055262;28;20289;-35
2021/09/13 07:33:13;;;;;;;;;;;;;;;13.48;84.85;101966.75;5055207;28;19916;-35
2021/09/13 07:35:38;;;;;;;;;;;;;;;13.60;85.03;101969.53;5055448;28;19928;-35
2021/09/13 07:38:04;;;;;;;;;;;;;;;13.69;85.25;101979.09;5055202;28;19958;-35
2021/09/13 07:40:29;;;;;;;;;;;;;;;13.78;86.81;101974.19;5054839;28;19955;-35
2021/09/13 07:42:54;;;;;;;;;;;;;;;13.83;85.21;101975.19;5054612;28;20332;-35
2021/09/13 07:45:21;;;;;;;;;;;;;;;13.91;85.05;101977.59;5055012;28;19909;-35
2021/09/13 07:47:46;;;;;;;;;;;;;;;14.02;85.07;101973.31;5055692;28;19960;-35
2021/09/13 07:50:12;;;;;;;;;;;;;;;14.12;85.12;101973.59;5054145;28;19913;-35
2021/09/13 07:52:37;;;;;;;;;;;;;;;14.19;85.12;101978.94;5055166;28;19916;-35
2021/09/13 07:55:02;;;;;;;;;;;;;;;14.31;85.24;101985.31;5054775;28;19909;-35
2021/09/13 07:57:29;;;;;;;;;;;;;;;14.38;84.82;101991.47;5054453;28;19909;-35
2021/09/13 07:59:54;;;;;;;;;;;;;;;14.44;84.83;101992.47;5054686;28;19950;-35
2021/09/13 08:02:19;;;;;;;;;;;;;;;14.52;85.47;101992.19;5054464;28;19999;-35
2021/09/13 08:04:45;;;;;;;;;;;;;;;14.60;84.61;101997.31;5054640;28;20006;-35
2021/09/13 08:07:10;;;;;;;;;;;;;;;14.70;84.71;101994.06;5054793;28;19971;-35
2021/09/13 08:09:35;;;;;;;;;;;;;;;14.82;84.42;101999.53;5054529;28;20241;-35
2021/09/13 08:12:00;;;;;;;;;;;;;;;14.92;85.26;102003.34;5054776;28;20372;-35
2021/09/13 08:14:26;;;;;;;;;;;;;;;15.04;84.86;102006.13;5054473;28;19909;-35
2021/09/13 08:16:51;;;;;;;;;;;;;;;15.13;84.78;102003.91;5054641;28;19916;-35
2021/09/13 08:19:17;;;;;;;;;;;;;;;15.23;84.68;102011.50;5054389;28;19908;-35
2021/09/13 08:21:43;;;;;;;;;;;;;;;15.32;84.21;102004.63;5054933;28;20003;-35
2021/09/13 08:24:09;;;;;;;;;;;;;;;15.42;85.00;102013.06;5054091;28;19962;-35
2021/09/13 08:26:34;;;;;;;;;;;;;;;15.48;84.29;102012.16;5054783;28;19916;-35
2021/09/13 08:28:59;;;;;;;;;;;;;;;15.54;84.24;102011.19;5054739;28;19908;-35
2021/09/13 08:31:25;;;;;;;;;;;;;;;15.61;84.49;102006.44;5054745;28;19959;-35
2021/09/13 08:33:50;;;;;;;;;;;;;;;15.74;84.26;102015.50;5054595;28;19916;-35
2021/09/13 08:36:16;;;;;;;;;;;;;;;15.85;83.58;102014.66;5053752;28;19912;-35
2021/09/13 08:38:41;;;;;;;;;;;;;;;15.91;83.80;102011.84;5053684;28;19908;-35
2021/09/13 08:41:07;;;;;;;;;;;;;;;15.98;83.77;102014.44;5054602;28;19974;-35
2021/09/13 08:43:32;;;;;;;;;;;;;;;16.03;83.51;102011.81;5053960;28;20332;-35
2021/09/13 08:46:10;;;;;;;;;;;;;;;16.14;83.43;102012.84;5054436;28;19908;-35
2021/09/13 08:48:41;;;;;;;;;;;;;;;16.28;83.72;102010.69;5053482;28;19913;-35
2021/09/13 08:53:40;;;;;;;;;;;;;;;16.51;82.23;102002.47;5053906;28;20327;-35
2021/09/13 08:56:13;;;;;;;;;;;;;;;16.46;81.89;102008.63;5054281;28;19908;-35
2021/09/13 08:58:39;;;;;;;;;;;;;;;16.47;80.34;102012.19;5054278;28;19999;-35
2021/09/13 09:01:05;;;;;;;;;;;;;;;16.47;81.52;102002.09;5052970;28;19931;-36
2021/09/13 09:03:34;;;;;;;;;;;;;;;16.51;82.05;102013.38;5053722;28;19908;-35
2021/09/13 09:05:59;;;;;;;;;;;;;;;16.67;82.46;102020.78;5054262;28;19947;-35
2021/09/13 09:08:28;;;;;;;;;;;;;;;16.85;81.87;102013.53;5053541;28;19962;-35
2021/09/13 09:10:55;;;;;;;;;;;;;;;17.01;79.21;102018.19;5054128;28;19917;-35
2021/09/13 09:13:20;;;;;;;;;;;;;;;17.12;80.09;102025.47;5053575;28;20326;-35
2021/09/13 09:15:52;;;;;;;;;;;;;;;17.17;80.63;102025.56;5053543;28;19948;-35
2021/09/13 09:18:17;;;;;;;;;;;;;;;17.29;80.00;102020.06;5053211;28;19909;-35
2021/09/13 09:20:44;;;;;;;;;;;;;;;17.33;78.03;102020.41;5053520;28;19915;-36
2021/09/13 09:23:09;;;;;;;;;;;;;;;17.23;78.12;102024.59;5053427;28;19912;-35
2021/09/13 09:25:36;;;;;;;;;;;;;;;17.29;78.26;102025.53;5054062;28;19967;-35
2021/09/13 09:28:10;;;;;;;;;;;;;;;17.34;78.23;102030.25;5053701;28;19924;-35
2021/09/13 09:30:45;;;;;;;;;;;;;;;17.41;78.09;102025.44;5053714;28;20008;-35
2021/09/13 09:33:15;;;;;;;;;;;;;;;17.42;77.86;102030.69;5053872;28;19908;-35
2021/09/13 09:35:45;;;;;;;;;;;;;;;17.31;76.39;102026.09;5053817;28;19951;-35
2021/09/13 09:38:26;;;;;;;;;;;;;;;17.24;76.58;102028.16;5053586;28;19971;-35
2021/09/13 09:41:10;;;;;;;;;;;;;;;17.21;77.65;102018.53;5053137;28;20349;-35
2021/09/13 09:43:51;;;;;;;;;;;;;;;17.23;77.52;102021.06;5054044;28;19913;-35
2021/09/13 09:46:16;;;;;;;;;;;;;;;17.25;76.20;102021.63;5053145;28;20015;-36
2021/09/13 09:48:42;;;;;;;;;;;;;;;17.36;77.37;102011.69;5053246;28;20325;-35
2021/09/13 09:51:27;;;;;;;;;;;;;;;17.54;77.19;102011.44;5053005;28;20351;-36
2021/09/13 09:53:52;;;;;;;;;;;;;;;17.74;75.60;102010.94;5053243;28;19908;-35
2021/09/13 09:56:17;;;;;;;;;;;;;;;17.91;75.52;102014.50;5053242;28;19913;-36
2021/09/13 09:58:59;;;;;;;;;;;;;;;18.09;76.59;102010.63;5053117;28;20333;-35
2021/09/13 10:01:30;;;;;;;;;;;;;;;18.28;75.64;102001.03;5053053;28;20403;-35
2021/09/13 10:03:56;;;;;;;;;;;;;;;18.46;75.32;102001.81;5053059;28;19912;-36
2021/09/13 10:06:21;;;;;;;;;;;;;;;18.49;72.25;101996.63;5053334;28;19915;-35
2021/09/13 10:08:46;;;;;;;;;;;;;;;18.56;70.83;101999.19;5052873;28;20390;-35
2021/09/13 10:11:12;;;;;;;;;;;;;;;18.68;73.17;102002.63;5053290;28;19909;-35
2021/09/13 10:13:37;;;;;;;;;;;;;;;18.84;73.76;102003.63;5055859;28;20379;-35
2021/09/13 10:16:03;;;;;;;;;;;;;;;18.95;71.81;101986.19;5056814;28;20004;-35
2021/09/13 10:18:28;;;;;;;;;;;;;;;18.93;69.24;101993.00;5056619;28;19915;-36
2021/09/13 10:20:54;;;;;;;;;;;;;;;18.91;71.98;101998.75;5056756;28;19928;-35
2021/09/13 10:23:19;;;;;;;;;;;;;;;18.94;71.35;101986.47;5056557;28;20464;-35
2021/09/13 10:25:44;;;;;;;;;;;;;;;18.99;72.56;101994.75;5056232;28;19908;-35
2021/09/13 10:28:10;;;;;;;;;;;;;;;19.08;72.21;101992.34;5056421;28;19909;-35
2021/09/13 10:30:49;;;;;;;;;;;;;;;19.09;70.33;101994.84;5056714;28;20329;-35
2021/09/13 10:33:15;;;;;;;;;;;;;;;19.07;71.30;101993.44;5056190;28;20407;-35
2021/09/13 10:35:52;;;;;;;;;;;;;;;19.04;70.34;101992.03;5056618;28;20343;-36
2021/09/13 10:38:56;;;;;;;;;;;;;;;19.10;69.96;101985.50;5056089;28;20011;-35
2021/09/13 10:41:51;;;;;;;;;;;;;;;19.16;69.24;101983.63;5034758;28;20365;-35
2021/09/13 10:44:28;;;;;;;;;;;;;;;19.15;67.48;101979.25;4994924;28;20003;-35
2021/09/13 10:47:00;;;;;;;;;;;;;;;19.06;67.87;101978.91;4994053;28;19913;-35
2021/09/13 10:49:26;;;;;;;;;;;;;;;19.09;63.17;101970.16;4994632;28;19913;-35
2021/09/13 10:52:09;;;;;;;;;;;;;;;19.00;64.14;101971.72;4994295;28;19917;-36
2021/09/13 10:54:53;;;;;;;;;;;;;;;19.09;66.37;101972.91;4994268;28;19913;-35
2021/09/13 10:57:38;;;;;;;;;;;;;;;19.32;67.05;101966.22;4994321;28;19909;-35
2021/09/13 11:00:04;;;;;;;;;;;;;;;19.45;61.64;101964.94;4994417;28;19913;-36
2021/09/13 11:02:29;;;;;;;;;;;;;;;19.52;64.25;101960.06;4994917;28;19910;-36
2021/09/13 11:05:13;;;;;;;;;;;;;;;19.59;64.96;101957.91;4994394;28;19932;-36
2021/09/13 11:07:38;;;;;;;;;;;;;;;19.72;63.23;101954.75;4994635;28;19909;-35
2021/09/13 11:10:03;;;;;;;;;;;;;;;19.86;62.79;101948.75;4994103;28;20460;-35
2021/09/13 11:12:29;;;;;;;;;;;;;;;20.03;65.28;101960.41;5020162;28;19943;-36
2021/09/13 11:15:02;;;;;;;;;;;;;;;20.15;64.67;101958.25;5033379;28;19919;-36
2021/09/13 11:17:27;;;;;;;;;;;;;;;19.96;61.64;101948.81;5034012;28;19948;-35
2021/09/13 11:19:52;;;;;;;;;;;;;;;20.03;63.19;101949.41;5037068;28;19908;-36
2021/09/13 11:22:17;;;;;;;;;;;;;;;20.16;62.71;101943.44;5056275;28;19913;-36
2021/09/13 11:24:42;;;;;;;;;;;;;;;20.07;62.09;101945.03;5054489;28;20336;-36
2021/09/13 11:27:09;;;;;;;;;;;;;;;19.96;62.69;101937.84;5055123;28;20375;-36
2021/09/13 11:29:36;;;;;;;;;;;;;;;19.87;61.95;101933.97;5055588;28;19958;-35
2021/09/13 11:32:03;;;;;;;;;;;;;;;19.78;63.73;101928.97;5055641;28;20003;-36
2021/09/13 11:34:28;;;;;;;;;;;;;;;19.74;63.49;101925.13;5055326;28;19915;-36
2021/09/13 11:36:53;;;;;;;;;;;;;;;19.74;63.25;101930.59;5055877;28;19943;-36
2021/09/13 11:39:19;;;;;;;;;;;;;;;19.79;61.47;101922.41;5054903;28;19908;-36
2021/09/13 11:42:16;;;;;;;;;;;;;;;19.68;60.81;101925.38;5055746;28;19920;-36
2021/09/13 11:44:42;;;;;;;;;;;;;;;19.69;57.26;101935.25;5032844;28;19909;-36
2021/09/13 11:47:08;;;;;;;;;;;;;;;19.84;60.63;101926.25;5032714;28;19920;-36
2021/09/13 11:49:34;;;;;;;;;;;;;;;20.09;61.41;101925.53;5032732;28;20268;-36
2021/09/13 11:52:02;;;;;;;;;;;;;;;20.33;61.64;101926.72;5033246;28;19905;-36
2021/09/13 11:54:28;;;;;;;;;;;;;;;20.50;57.40;101926.53;5033261;28;19909;-36
2021/09/13 11:56:53;;;;;;;;;;;;;;;20.65;58.59;101917.50;5032627;28;19904;-36
2021/09/13 11:59:19;;;;;;;;;;;;;;;20.69;59.00;101908.44;5032453;28;19916;-36
2021/09/13 12:02:01;;;;;;;;;;;;;;;20.58;53.97;101904.00;5032666;28;19986;-36
2021/09/13 12:04:27;;;;;;;;;;;;;;;20.65;57.96;101906.50;5032374;28;19909;-36
2021/09/13 12:07:04;;;;;;;;;;;;;;;20.77;56.50;101907.88;5032818;28;19905;-36
2021/09/13 12:09:29;;;;;;;;;;;;;;;20.91;57.42;101912.84;5032297;28;19909;-36
2021/09/13 12:11:55;;;;;;;;;;;;;;;20.93;57.36;101897.72;5032337;28;19909;-35
2021/09/13 12:14:20;;;;;;;;;;;;;;;20.97;58.35;101903.50;5032413;28;19979;-36
2021/09/13 12:17:03;;;;;;;;;;;;;;;20.87;58.07;101901.56;5032553;28;20027;-35
2021/09/13 12:19:29;;;;;;;;;;;;;;;20.78;58.99;101898.53;5036085;28;19917;-35
2021/09/13 12:22:00;;;;;;;;;;;;;;;20.71;58.12;101895.25;5054611;28;19913;-36
2021/09/13 12:24:26;;;;;;;;;;;;;;;20.61;58.88;101894.41;5054243;28;19915;-36
2021/09/13 12:26:51;;;;;;;;;;;;;;;20.56;60.96;101887.81;5054163;28;19909;-36
2021/09/13 12:29:16;;;;;;;;;;;;;;;20.48;57.76;101891.06;5054740;28;19955;-36
2021/09/13 12:31:41;;;;;;;;;;;;;;;20.31;57.91;101891.31;5054154;28;20058;-36
2021/09/13 12:34:07;;;;;;;;;;;;;;;20.22;57.71;101898.41;5053802;28;20348;-36
2021/09/13 12:36:32;;;;;;;;;;;;;;;20.21;60.12;101891.28;5054033;28;20265;-36
2021/09/13 12:38:58;;;;;;;;;;;;;;;20.34;60.73;101887.16;5054091;28;19909;-36